sensor_id;sensor_type;location;lat;lon;timestamp;P1;durP1;ratioP1;P2;durP2;ratioP2
18172;SDS011;9211;48.818;9.312;2024-01-11T00:00:01;61.97;;;30.40;;
18172;SDS011;9211;48.818;9.312;2024-01-11T00:02:30;63.03;;;29.95;;
18172;SDS011;9211;48.818;9.312;2024-01-11T00:04:57;67.03;;;31.40;;
18172;SDS011;9211;48.818;9.312;2024-01-11T00:07:28;70.45;;;30.70;;
18172;SDS011;9211;48.818;9.312;2024-01-11T00:09:55;59.83;;;29.88;;
18172;SDS011;9211;48.818;9.312;2024-01-11T00:12:22;63.70;;;30.13;;
18172;SDS011;9211;48.818;9.312;2024-01-11T00:14:49;64.95;;;30.98;;
18172;SDS011;9211;48.818;9.312;2024-01-11T00:17:16;65.75;;;31.02;;
18172;SDS011;9211;48.818;9.312;2024-01-11T00:19:43;66.05;;;31.15;;
18172;SDS011;9211;48.818;9.312;2024-01-11T00:22:10;67.43;;;30.40;;
18172;SDS011;9211;48.818;9.312;2024-01-11T00:24:38;68.25;;;30.75;;
18172;SDS011;9211;48.818;9.312;2024-01-11T00:27:06;67.18;;;30.52;;
18172;SDS011;9211;48.818;9.312;2024-01-11T00:29:33;62.83;;;30.33;;
18172;SDS011;9211;48.818;9.312;2024-01-11T00:32:02;69.47;;;31.60;;
18172;SDS011;9211;48.818;9.312;2024-01-11T00:34:29;66.95;;;31.10;;
18172;SDS011;9211;48.818;9.312;2024-01-11T00:36:56;70.35;;;32.50;;
18172;SDS011;9211;48.818;9.312;2024-01-11T00:39:23;68.38;;;31.95;;
18172;SDS011;9211;48.818;9.312;2024-01-11T00:41:52;67.43;;;31.30;;
18172;SDS011;9211;48.818;9.312;2024-01-11T00:44:19;67.28;;;31.48;;
18172;SDS011;9211;48.818;9.312;2024-01-11T00:46:46;69.03;;;31.83;;
18172;SDS011;9211;48.818;9.312;2024-01-11T00:49:13;68.22;;;31.42;;
18172;SDS011;9211;48.818;9.312;2024-01-11T00:51:39;68.80;;;31.10;;
18172;SDS011;9211;48.818;9.312;2024-01-11T00:54:06;65.32;;;31.52;;
18172;SDS011;9211;48.818;9.312;2024-01-11T00:56:33;65.00;;;30.48;;
18172;SDS011;9211;48.818;9.312;2024-01-11T00:59:01;66.10;;;30.77;;
18172;SDS011;9211;48.818;9.312;2024-01-11T01:01:29;63.20;;;30.50;;
18172;SDS011;9211;48.818;9.312;2024-01-11T01:03:56;65.00;;;30.83;;
18172;SDS011;9211;48.818;9.312;2024-01-11T01:06:24;70.35;;;31.17;;
18172;SDS011;9211;48.818;9.312;2024-01-11T01:08:51;64.30;;;30.65;;
18172;SDS011;9211;48.818;9.312;2024-01-11T01:11:18;66.97;;;31.35;;
18172;SDS011;9211;48.818;9.312;2024-01-11T01:13:45;65.90;;;30.47;;
18172;SDS011;9211;48.818;9.312;2024-01-11T01:16:13;66.60;;;30.70;;
18172;SDS011;9211;48.818;9.312;2024-01-11T01:18:42;65.53;;;30.77;;
18172;SDS011;9211;48.818;9.312;2024-01-11T01:21:09;65.95;;;31.80;;
18172;SDS011;9211;48.818;9.312;2024-01-11T01:23:36;67.50;;;31.33;;
18172;SDS011;9211;48.818;9.312;2024-01-11T01:26:02;68.10;;;31.33;;
18172;SDS011;9211;48.818;9.312;2024-01-11T01:28:29;68.65;;;30.92;;
18172;SDS011;9211;48.818;9.312;2024-01-11T01:30:56;67.30;;;31.02;;
18172;SDS011;9211;48.818;9.312;2024-01-11T01:33:25;72.40;;;31.70;;
18172;SDS011;9211;48.818;9.312;2024-01-11T01:35:52;65.03;;;30.67;;
18172;SDS011;9211;48.818;9.312;2024-01-11T01:38:18;67.20;;;30.48;;
18172;SDS011;9211;48.818;9.312;2024-01-11T01:40:45;69.65;;;30.70;;
18172;SDS011;9211;48.818;9.312;2024-01-11T01:43:12;69.20;;;31.47;;
18172;SDS011;9211;48.818;9.312;2024-01-11T01:45:39;71.28;;;32.10;;
18172;SDS011;9211;48.818;9.312;2024-01-11T01:48:06;65.38;;;31.40;;
18172;SDS011;9211;48.818;9.312;2024-01-11T01:50:35;67.57;;;31.33;;
18172;SDS011;9211;48.818;9.312;2024-01-11T01:53:02;70.30;;;32.53;;
18172;SDS011;9211;48.818;9.312;2024-01-11T01:55:30;73.00;;;31.92;;
18172;SDS011;9211;48.818;9.312;2024-01-11T01:57:57;73.57;;;32.65;;
18172;SDS011;9211;48.818;9.312;2024-01-11T02:00:26;68.68;;;31.80;;
18172;SDS011;9211;48.818;9.312;2024-01-11T02:02:53;69.72;;;31.70;;
18172;SDS011;9211;48.818;9.312;2024-01-11T02:05:22;68.85;;;30.67;;
18172;SDS011;9211;48.818;9.312;2024-01-11T02:07:51;66.82;;;30.60;;
18172;SDS011;9211;48.818;9.312;2024-01-11T02:10:18;67.93;;;31.38;;
18172;SDS011;9211;48.818;9.312;2024-01-11T02:12:46;70.95;;;31.75;;
18172;SDS011;9211;48.818;9.312;2024-01-11T02:15:13;66.75;;;31.17;;
18172;SDS011;9211;48.818;9.312;2024-01-11T02:17:40;73.77;;;32.07;;
18172;SDS011;9211;48.818;9.312;2024-01-11T02:20:08;69.60;;;30.95;;
18172;SDS011;9211;48.818;9.312;2024-01-11T02:22:37;68.22;;;31.13;;
18172;SDS011;9211;48.818;9.312;2024-01-11T02:25:08;71.03;;;31.15;;
18172;SDS011;9211;48.818;9.312;2024-01-11T02:27:44;67.88;;;30.38;;
18172;SDS011;9211;48.818;9.312;2024-01-11T02:30:12;66.17;;;31.17;;
18172;SDS011;9211;48.818;9.312;2024-01-11T02:32:40;69.10;;;31.17;;
18172;SDS011;9211;48.818;9.312;2024-01-11T02:35:07;65.32;;;30.08;;
18172;SDS011;9211;48.818;9.312;2024-01-11T02:37:35;65.80;;;31.47;;
18172;SDS011;9211;48.818;9.312;2024-01-11T02:40:04;66.68;;;30.20;;
18172;SDS011;9211;48.818;9.312;2024-01-11T02:42:34;65.85;;;30.58;;
18172;SDS011;9211;48.818;9.312;2024-01-11T02:45:01;65.97;;;29.90;;
18172;SDS011;9211;48.818;9.312;2024-01-11T02:47:29;65.23;;;29.63;;
18172;SDS011;9211;48.818;9.312;2024-01-11T02:49:56;65.68;;;29.83;;
18172;SDS011;9211;48.818;9.312;2024-01-11T02:52:23;64.75;;;30.35;;
18172;SDS011;9211;48.818;9.312;2024-01-11T02:54:50;64.33;;;30.13;;
18172;SDS011;9211;48.818;9.312;2024-01-11T02:57:17;65.78;;;30.23;;
18172;SDS011;9211;48.818;9.312;2024-01-11T02:59:46;65.35;;;30.35;;
18172;SDS011;9211;48.818;9.312;2024-01-11T03:02:13;72.22;;;32.38;;
18172;SDS011;9211;48.818;9.312;2024-01-11T03:04:40;67.30;;;31.27;;
18172;SDS011;9211;48.818;9.312;2024-01-11T03:07:07;72.10;;;31.90;;
18172;SDS011;9211;48.818;9.312;2024-01-11T03:09:34;72.25;;;32.10;;
18172;SDS011;9211;48.818;9.312;2024-01-11T03:12:01;69.85;;;32.30;;
18172;SDS011;9211;48.818;9.312;2024-01-11T03:14:28;67.22;;;31.10;;
18172;SDS011;9211;48.818;9.312;2024-01-11T03:16:56;74.60;;;32.40;;
18172;SDS011;9211;48.818;9.312;2024-01-11T03:19:23;70.72;;;31.48;;
18172;SDS011;9211;48.818;9.312;2024-01-11T03:21:50;70.50;;;31.67;;
18172;SDS011;9211;48.818;9.312;2024-01-11T03:24:17;70.47;;;32.15;;
18172;SDS011;9211;48.818;9.312;2024-01-11T03:26:44;69.25;;;31.55;;
18172;SDS011;9211;48.818;9.312;2024-01-11T03:29:11;68.38;;;31.33;;
18172;SDS011;9211;48.818;9.312;2024-01-11T03:31:38;69.43;;;31.10;;
18172;SDS011;9211;48.818;9.312;2024-01-11T03:34:08;68.50;;;31.52;;
18172;SDS011;9211;48.818;9.312;2024-01-11T03:36:35;67.43;;;30.52;;
18172;SDS011;9211;48.818;9.312;2024-01-11T03:39:02;64.70;;;30.30;;
18172;SDS011;9211;48.818;9.312;2024-01-11T03:41:29;70.80;;;31.63;;
18172;SDS011;9211;48.818;9.312;2024-01-11T03:43:56;69.68;;;32.03;;
18172;SDS011;9211;48.818;9.312;2024-01-11T03:46:23;70.50;;;32.10;;
18172;SDS011;9211;48.818;9.312;2024-01-11T03:48:50;67.47;;;30.67;;
18172;SDS011;9211;48.818;9.312;2024-01-11T03:51:19;70.45;;;31.25;;
18172;SDS011;9211;48.818;9.312;2024-01-11T03:53:46;66.40;;;30.98;;
18172;SDS011;9211;48.818;9.312;2024-01-11T03:56:13;67.68;;;32.00;;
18172;SDS011;9211;48.818;9.312;2024-01-11T03:58:40;65.67;;;30.80;;
18172;SDS011;9211;48.818;9.312;2024-01-11T04:01:09;65.88;;;30.85;;
18172;SDS011;9211;48.818;9.312;2024-01-11T04:03:37;69.45;;;31.02;;
18172;SDS011;9211;48.818;9.312;2024-01-11T04:06:04;67.20;;;30.83;;
18172;SDS011;9211;48.818;9.312;2024-01-11T04:08:32;72.20;;;32.30;;
18172;SDS011;9211;48.818;9.312;2024-01-11T04:11:01;71.10;;;32.42;;
18172;SDS011;9211;48.818;9.312;2024-01-11T04:13:29;65.32;;;30.35;;
18172;SDS011;9211;48.818;9.312;2024-01-11T04:15:56;67.72;;;31.42;;
18172;SDS011;9211;48.818;9.312;2024-01-11T04:18:23;67.93;;;32.00;;
18172;SDS011;9211;48.818;9.312;2024-01-11T04:20:49;69.55;;;31.25;;
18172;SDS011;9211;48.818;9.312;2024-01-11T04:23:16;71.93;;;31.67;;
18172;SDS011;9211;48.818;9.312;2024-01-11T04:25:45;67.65;;;30.95;;
18172;SDS011;9211;48.818;9.312;2024-01-11T04:28:12;70.88;;;31.23;;
18172;SDS011;9211;48.818;9.312;2024-01-11T04:30:39;65.57;;;30.55;;
18172;SDS011;9211;48.818;9.312;2024-01-11T04:33:06;69.57;;;31.38;;
18172;SDS011;9211;48.818;9.312;2024-01-11T04:35:33;69.50;;;31.00;;
18172;SDS011;9211;48.818;9.312;2024-01-11T04:38:00;68.35;;;31.00;;
18172;SDS011;9211;48.818;9.312;2024-01-11T04:40:26;76.20;;;32.85;;
18172;SDS011;9211;48.818;9.312;2024-01-11T04:42:55;68.22;;;30.77;;
18172;SDS011;9211;48.818;9.312;2024-01-11T04:45:22;71.27;;;31.77;;
18172;SDS011;9211;48.818;9.312;2024-01-11T04:47:50;70.97;;;31.27;;
18172;SDS011;9211;48.818;9.312;2024-01-11T04:50:17;64.75;;;30.38;;
18172;SDS011;9211;48.818;9.312;2024-01-11T04:52:44;72.20;;;31.30;;
18172;SDS011;9211;48.818;9.312;2024-01-11T04:55:11;68.47;;;31.20;;
18172;SDS011;9211;48.818;9.312;2024-01-11T04:57:38;70.38;;;32.22;;
18172;SDS011;9211;48.818;9.312;2024-01-11T05:00:07;69.10;;;30.98;;
18172;SDS011;9211;48.818;9.312;2024-01-11T05:02:34;69.20;;;31.13;;
18172;SDS011;9211;48.818;9.312;2024-01-11T05:05:01;67.90;;;30.63;;
18172;SDS011;9211;48.818;9.312;2024-01-11T05:07:28;69.60;;;31.17;;
18172;SDS011;9211;48.818;9.312;2024-01-11T05:09:55;68.95;;;31.13;;
18172;SDS011;9211;48.818;9.312;2024-01-11T05:12:22;68.43;;;31.17;;
18172;SDS011;9211;48.818;9.312;2024-01-11T05:14:49;69.45;;;30.95;;
18172;SDS011;9211;48.818;9.312;2024-01-11T05:17:17;70.77;;;30.67;;
18172;SDS011;9211;48.818;9.312;2024-01-11T05:19:44;64.22;;;29.52;;
18172;SDS011;9211;48.818;9.312;2024-01-11T05:22:11;65.40;;;29.83;;
18172;SDS011;9211;48.818;9.312;2024-01-11T05:24:38;72.47;;;31.27;;
18172;SDS011;9211;48.818;9.312;2024-01-11T05:27:05;70.50;;;31.23;;
18172;SDS011;9211;48.818;9.312;2024-01-11T05:29:32;69.15;;;31.23;;
18172;SDS011;9211;48.818;9.312;2024-01-11T05:31:59;66.68;;;29.83;;
18172;SDS011;9211;48.818;9.312;2024-01-11T05:34:29;66.03;;;30.27;;
18172;SDS011;9211;48.818;9.312;2024-01-11T05:36:56;68.45;;;31.08;;
18172;SDS011;9211;48.818;9.312;2024-01-11T05:39:24;66.20;;;30.15;;
18172;SDS011;9211;48.818;9.312;2024-01-11T05:41:51;69.13;;;30.77;;
18172;SDS011;9211;48.818;9.312;2024-01-11T05:44:18;68.65;;;31.10;;
18172;SDS011;9211;48.818;9.312;2024-01-11T05:46:45;72.03;;;31.33;;
18172;SDS011;9211;48.818;9.312;2024-01-11T05:49:12;70.13;;;31.40;;
18172;SDS011;9211;48.818;9.312;2024-01-11T05:51:40;74.35;;;31.98;;
18172;SDS011;9211;48.818;9.312;2024-01-11T05:54:07;68.07;;;31.23;;
18172;SDS011;9211;48.818;9.312;2024-01-11T05:56:34;70.78;;;31.83;;
18172;SDS011;9211;48.818;9.312;2024-01-11T05:59:01;71.35;;;32.35;;
18172;SDS011;9211;48.818;9.312;2024-01-11T06:01:28;68.22;;;30.52;;
18172;SDS011;9211;48.818;9.312;2024-01-11T06:03:55;65.80;;;30.40;;
18172;SDS011;9211;48.818;9.312;2024-01-11T06:06:22;69.35;;;30.20;;
18172;SDS011;9211;48.818;9.312;2024-01-11T06:08:50;70.45;;;31.27;;
18172;SDS011;9211;48.818;9.312;2024-01-11T06:11:17;68.25;;;30.80;;
18172;SDS011;9211;48.818;9.312;2024-01-11T06:13:47;69.90;;;31.77;;
18172;SDS011;9211;48.818;9.312;2024-01-11T06:16:14;70.32;;;31.80;;
18172;SDS011;9211;48.818;9.312;2024-01-11T06:18:42;68.45;;;31.02;;
18172;SDS011;9211;48.818;9.312;2024-01-11T06:21:10;68.15;;;30.92;;
18172;SDS011;9211;48.818;9.312;2024-01-11T06:23:36;69.40;;;30.80;;
18172;SDS011;9211;48.818;9.312;2024-01-11T06:26:05;70.00;;;30.83;;
18172;SDS011;9211;48.818;9.312;2024-01-11T06:28:32;69.75;;;30.90;;
18172;SDS011;9211;48.818;9.312;2024-01-11T06:30:59;67.90;;;30.63;;
18172;SDS011;9211;48.818;9.312;2024-01-11T06:33:26;70.90;;;32.33;;
18172;SDS011;9211;48.818;9.312;2024-01-11T06:35:53;69.47;;;31.15;;
18172;SDS011;9211;48.818;9.312;2024-01-11T06:38:21;73.75;;;32.03;;
18172;SDS011;9211;48.818;9.312;2024-01-11T06:40:48;71.57;;;31.88;;
18172;SDS011;9211;48.818;9.312;2024-01-11T06:43:16;71.63;;;31.73;;
18172;SDS011;9211;48.818;9.312;2024-01-11T06:45:43;72.30;;;31.95;;
18172;SDS011;9211;48.818;9.312;2024-01-11T06:48:10;66.40;;;30.60;;
18172;SDS011;9211;48.818;9.312;2024-01-11T06:50:37;67.65;;;31.17;;
18172;SDS011;9211;48.818;9.312;2024-01-11T06:53:04;71.88;;;32.17;;
18172;SDS011;9211;48.818;9.312;2024-01-11T06:55:31;72.90;;;32.47;;
18172;SDS011;9211;48.818;9.312;2024-01-11T06:57:58;69.93;;;32.42;;
18172;SDS011;9211;48.818;9.312;2024-01-11T07:00:28;72.80;;;32.97;;
18172;SDS011;9211;48.818;9.312;2024-01-11T07:02:55;75.38;;;32.33;;
18172;SDS011;9211;48.818;9.312;2024-01-11T07:05:22;74.82;;;32.47;;
18172;SDS011;9211;48.818;9.312;2024-01-11T07:07:49;74.22;;;32.80;;
18172;SDS011;9211;48.818;9.312;2024-01-11T07:10:19;69.07;;;32.10;;
18172;SDS011;9211;48.818;9.312;2024-01-11T07:12:46;72.13;;;32.92;;
18172;SDS011;9211;48.818;9.312;2024-01-11T07:15:13;70.57;;;31.17;;
18172;SDS011;9211;48.818;9.312;2024-01-11T07:17:41;68.38;;;30.85;;
18172;SDS011;9211;48.818;9.312;2024-01-11T07:20:09;72.40;;;32.90;;
18172;SDS011;9211;48.818;9.312;2024-01-11T07:22:36;75.13;;;32.38;;
18172;SDS011;9211;48.818;9.312;2024-01-11T07:25:04;70.68;;;32.25;;
18172;SDS011;9211;48.818;9.312;2024-01-11T07:27:31;70.70;;;32.55;;
18172;SDS011;9211;48.818;9.312;2024-01-11T07:29:58;76.07;;;33.25;;
18172;SDS011;9211;48.818;9.312;2024-01-11T07:32:27;67.97;;;31.23;;
18172;SDS011;9211;48.818;9.312;2024-01-11T07:34:55;72.07;;;32.00;;
18172;SDS011;9211;48.818;9.312;2024-01-11T07:37:22;72.88;;;32.40;;
18172;SDS011;9211;48.818;9.312;2024-01-11T07:39:50;69.82;;;31.92;;
18172;SDS011;9211;48.818;9.312;2024-01-11T07:42:17;69.93;;;31.00;;
18172;SDS011;9211;48.818;9.312;2024-01-11T07:44:45;70.28;;;30.92;;
18172;SDS011;9211;48.818;9.312;2024-01-11T07:47:12;70.63;;;31.45;;
18172;SDS011;9211;48.818;9.312;2024-01-11T07:49:39;69.30;;;30.52;;
18172;SDS011;9211;48.818;9.312;2024-01-11T07:52:07;75.05;;;32.47;;
18172;SDS011;9211;48.818;9.312;2024-01-11T07:54:35;77.78;;;33.60;;
18172;SDS011;9211;48.818;9.312;2024-01-11T07:57:02;72.28;;;32.70;;
18172;SDS011;9211;48.818;9.312;2024-01-11T07:59:32;76.22;;;32.55;;
18172;SDS011;9211;48.818;9.312;2024-01-11T08:02:01;74.32;;;32.58;;
18172;SDS011;9211;48.818;9.312;2024-01-11T08:04:28;74.70;;;32.95;;
18172;SDS011;9211;48.818;9.312;2024-01-11T08:06:55;69.50;;;31.27;;
18172;SDS011;9211;48.818;9.312;2024-01-11T08:09:26;70.72;;;31.17;;
18172;SDS011;9211;48.818;9.312;2024-01-11T08:11:53;70.85;;;31.83;;
18172;SDS011;9211;48.818;9.312;2024-01-11T08:14:20;75.80;;;32.80;;
18172;SDS011;9211;48.818;9.312;2024-01-11T08:16:47;73.72;;;32.42;;
18172;SDS011;9211;48.818;9.312;2024-01-11T08:19:14;79.95;;;34.08;;
18172;SDS011;9211;48.818;9.312;2024-01-11T08:21:42;78.63;;;34.47;;
18172;SDS011;9211;48.818;9.312;2024-01-11T08:24:09;77.07;;;34.42;;
18172;SDS011;9211;48.818;9.312;2024-01-11T08:26:37;75.57;;;33.90;;
18172;SDS011;9211;48.818;9.312;2024-01-11T08:29:04;81.75;;;34.72;;
18172;SDS011;9211;48.818;9.312;2024-01-11T08:31:31;80.60;;;34.63;;
18172;SDS011;9211;48.818;9.312;2024-01-11T08:33:59;71.73;;;32.83;;
18172;SDS011;9211;48.818;9.312;2024-01-11T08:36:30;76.10;;;34.63;;
18172;SDS011;9211;48.818;9.312;2024-01-11T08:38:59;75.47;;;34.25;;
18172;SDS011;9211;48.818;9.312;2024-01-11T08:41:26;76.13;;;34.67;;
18172;SDS011;9211;48.818;9.312;2024-01-11T08:43:54;77.40;;;33.92;;
18172;SDS011;9211;48.818;9.312;2024-01-11T08:46:24;80.72;;;35.72;;
18172;SDS011;9211;48.818;9.312;2024-01-11T08:48:52;77.57;;;36.07;;
18172;SDS011;9211;48.818;9.312;2024-01-11T08:51:21;78.18;;;36.47;;
18172;SDS011;9211;48.818;9.312;2024-01-11T08:53:48;80.50;;;36.50;;
18172;SDS011;9211;48.818;9.312;2024-01-11T08:56:15;86.88;;;37.17;;
18172;SDS011;9211;48.818;9.312;2024-01-11T08:58:42;82.97;;;37.33;;
18172;SDS011;9211;48.818;9.312;2024-01-11T09:01:10;80.00;;;36.60;;
18172;SDS011;9211;48.818;9.312;2024-01-11T09:03:38;82.85;;;37.08;;
18172;SDS011;9211;48.818;9.312;2024-01-11T09:06:05;80.75;;;36.35;;
18172;SDS011;9211;48.818;9.312;2024-01-11T09:08:32;79.07;;;36.47;;
18172;SDS011;9211;48.818;9.312;2024-01-11T09:10:59;82.63;;;37.08;;
18172;SDS011;9211;48.818;9.312;2024-01-11T09:13:27;79.32;;;35.65;;
18172;SDS011;9211;48.818;9.312;2024-01-11T09:15:54;79.90;;;35.90;;
18172;SDS011;9211;48.818;9.312;2024-01-11T09:18:23;79.97;;;36.17;;
18172;SDS011;9211;48.818;9.312;2024-01-11T09:20:49;76.20;;;35.92;;
18172;SDS011;9211;48.818;9.312;2024-01-11T09:23:16;82.28;;;37.05;;
18172;SDS011;9211;48.818;9.312;2024-01-11T09:25:44;79.00;;;36.47;;
18172;SDS011;9211;48.818;9.312;2024-01-11T09:28:10;78.53;;;36.43;;
18172;SDS011;9211;48.818;9.312;2024-01-11T09:30:37;79.63;;;37.25;;
18172;SDS011;9211;48.818;9.312;2024-01-11T09:33:04;83.45;;;37.08;;
18172;SDS011;9211;48.818;9.312;2024-01-11T09:35:33;78.70;;;36.70;;
18172;SDS011;9211;48.818;9.312;2024-01-11T09:38:00;86.55;;;37.72;;
18172;SDS011;9211;48.818;9.312;2024-01-11T09:40:27;78.72;;;37.95;;
18172;SDS011;9211;48.818;9.312;2024-01-11T09:42:54;84.05;;;38.97;;
18172;SDS011;9211;48.818;9.312;2024-01-11T09:45:22;80.72;;;37.90;;
18172;SDS011;9211;48.818;9.312;2024-01-11T09:47:50;84.37;;;38.03;;
18172;SDS011;9211;48.818;9.312;2024-01-11T09:50:19;82.63;;;38.10;;
18172;SDS011;9211;48.818;9.312;2024-01-11T09:52:49;80.55;;;37.58;;
18172;SDS011;9211;48.818;9.312;2024-01-11T09:55:17;82.53;;;37.50;;
18172;SDS011;9211;48.818;9.312;2024-01-11T09:57:45;80.07;;;38.20;;
18172;SDS011;9211;48.818;9.312;2024-01-11T10:00:13;78.97;;;37.63;;
18172;SDS011;9211;48.818;9.312;2024-01-11T10:02:44;78.00;;;37.65;;
18172;SDS011;9211;48.818;9.312;2024-01-11T10:05:12;85.30;;;39.53;;
18172;SDS011;9211;48.818;9.312;2024-01-11T10:07:41;80.03;;;38.10;;
18172;SDS011;9211;48.818;9.312;2024-01-11T10:10:10;81.72;;;37.92;;
18172;SDS011;9211;48.818;9.312;2024-01-11T10:12:38;80.32;;;37.75;;
18172;SDS011;9211;48.818;9.312;2024-01-11T10:15:06;79.10;;;37.73;;
18172;SDS011;9211;48.818;9.312;2024-01-11T10:17:35;79.10;;;36.67;;
18172;SDS011;9211;48.818;9.312;2024-01-11T10:20:02;76.50;;;37.03;;
18172;SDS011;9211;48.818;9.312;2024-01-11T10:22:30;74.88;;;36.13;;
18172;SDS011;9211;48.818;9.312;2024-01-11T10:25:07;77.57;;;36.88;;
18172;SDS011;9211;48.818;9.312;2024-01-11T10:27:37;77.60;;;36.03;;
18172;SDS011;9211;48.818;9.312;2024-01-11T10:30:05;73.93;;;36.30;;
18172;SDS011;9211;48.818;9.312;2024-01-11T10:32:33;70.18;;;35.53;;
18172;SDS011;9211;48.818;9.312;2024-01-11T10:35:00;75.20;;;37.10;;
18172;SDS011;9211;48.818;9.312;2024-01-11T10:37:30;74.97;;;36.22;;
18172;SDS011;9211;48.818;9.312;2024-01-11T10:40:00;77.65;;;36.90;;
18172;SDS011;9211;48.818;9.312;2024-01-11T10:42:35;71.43;;;35.75;;
18172;SDS011;9211;48.818;9.312;2024-01-11T10:45:07;76.68;;;36.78;;
18172;SDS011;9211;48.818;9.312;2024-01-11T10:47:40;74.50;;;37.40;;
18172;SDS011;9211;48.818;9.312;2024-01-11T10:50:13;78.87;;;37.37;;
18172;SDS011;9211;48.818;9.312;2024-01-11T10:52:45;79.13;;;38.25;;
18172;SDS011;9211;48.818;9.312;2024-01-11T10:55:20;80.28;;;38.22;;
18172;SDS011;9211;48.818;9.312;2024-01-11T10:57:50;73.20;;;36.80;;
18172;SDS011;9211;48.818;9.312;2024-01-11T11:00:17;76.75;;;37.38;;
18172;SDS011;9211;48.818;9.312;2024-01-11T11:02:45;73.70;;;36.75;;
18172;SDS011;9211;48.818;9.312;2024-01-11T11:05:13;77.32;;;37.88;;
18172;SDS011;9211;48.818;9.312;2024-01-11T11:07:42;72.60;;;36.47;;
18172;SDS011;9211;48.818;9.312;2024-01-11T11:10:09;77.22;;;37.38;;
18172;SDS011;9211;48.818;9.312;2024-01-11T11:12:38;74.43;;;36.30;;
18172;SDS011;9211;48.818;9.312;2024-01-11T11:15:09;73.93;;;36.88;;
18172;SDS011;9211;48.818;9.312;2024-01-11T11:17:40;75.13;;;36.45;;
18172;SDS011;9211;48.818;9.312;2024-01-11T11:20:10;73.05;;;36.55;;
18172;SDS011;9211;48.818;9.312;2024-01-11T11:22:40;75.20;;;36.77;;
18172;SDS011;9211;48.818;9.312;2024-01-11T11:25:08;74.35;;;36.50;;
18172;SDS011;9211;48.818;9.312;2024-01-11T11:27:35;74.60;;;37.33;;
18172;SDS011;9211;48.818;9.312;2024-01-11T11:30:03;76.78;;;37.78;;
18172;SDS011;9211;48.818;9.312;2024-01-11T11:32:38;75.75;;;36.95;;
18172;SDS011;9211;48.818;9.312;2024-01-11T11:35:09;75.50;;;36.57;;
18172;SDS011;9211;48.818;9.312;2024-01-11T11:37:38;76.38;;;37.08;;
18172;SDS011;9211;48.818;9.312;2024-01-11T11:40:06;72.63;;;36.30;;
18172;SDS011;9211;48.818;9.312;2024-01-11T11:42:35;74.63;;;35.95;;
18172;SDS011;9211;48.818;9.312;2024-01-11T11:45:03;73.80;;;36.65;;
18172;SDS011;9211;48.818;9.312;2024-01-11T11:47:33;73.88;;;36.55;;
18172;SDS011;9211;48.818;9.312;2024-01-11T11:50:07;76.13;;;36.23;;
18172;SDS011;9211;48.818;9.312;2024-01-11T11:52:36;74.32;;;37.28;;
18172;SDS011;9211;48.818;9.312;2024-01-11T11:55:05;72.55;;;35.97;;
18172;SDS011;9211;48.818;9.312;2024-01-11T11:57:33;73.73;;;37.30;;
18172;SDS011;9211;48.818;9.312;2024-01-11T12:00:01;75.07;;;37.50;;
18172;SDS011;9211;48.818;9.312;2024-01-11T12:02:36;74.20;;;36.78;;
18172;SDS011;9211;48.818;9.312;2024-01-11T12:05:03;73.90;;;35.90;;
18172;SDS011;9211;48.818;9.312;2024-01-11T12:07:32;72.38;;;35.90;;
18172;SDS011;9211;48.818;9.312;2024-01-11T12:09:59;72.10;;;37.42;;
18172;SDS011;9211;48.818;9.312;2024-01-11T12:12:26;72.88;;;36.85;;
18172;SDS011;9211;48.818;9.312;2024-01-11T12:14:54;76.15;;;36.78;;
18172;SDS011;9211;48.818;9.312;2024-01-11T12:17:21;71.78;;;36.42;;
18172;SDS011;9211;48.818;9.312;2024-01-11T12:19:51;75.60;;;36.20;;
18172;SDS011;9211;48.818;9.312;2024-01-11T12:22:18;77.60;;;37.40;;
18172;SDS011;9211;48.818;9.312;2024-01-11T12:24:47;75.60;;;36.65;;
18172;SDS011;9211;48.818;9.312;2024-01-11T12:27:13;76.35;;;36.72;;
18172;SDS011;9211;48.818;9.312;2024-01-11T12:29:41;71.90;;;36.17;;
18172;SDS011;9211;48.818;9.312;2024-01-11T12:32:08;71.35;;;35.88;;
18172;SDS011;9211;48.818;9.312;2024-01-11T12:34:37;72.87;;;35.87;;
18172;SDS011;9211;48.818;9.312;2024-01-11T12:37:05;69.82;;;36.45;;
18172;SDS011;9211;48.818;9.312;2024-01-11T12:39:37;69.70;;;35.42;;
18172;SDS011;9211;48.818;9.312;2024-01-11T12:42:05;71.20;;;35.88;;
18172;SDS011;9211;48.818;9.312;2024-01-11T12:44:34;71.27;;;35.93;;
18172;SDS011;9211;48.818;9.312;2024-01-11T12:47:03;69.70;;;35.38;;
18172;SDS011;9211;48.818;9.312;2024-01-11T12:49:31;72.20;;;35.47;;
18172;SDS011;9211;48.818;9.312;2024-01-11T12:51:58;74.47;;;37.08;;
18172;SDS011;9211;48.818;9.312;2024-01-11T12:54:25;73.43;;;36.07;;
18172;SDS011;9211;48.818;9.312;2024-01-11T12:56:53;72.97;;;36.33;;
18172;SDS011;9211;48.818;9.312;2024-01-11T12:59:21;70.95;;;36.33;;
18172;SDS011;9211;48.818;9.312;2024-01-11T13:01:52;73.78;;;36.33;;
18172;SDS011;9211;48.818;9.312;2024-01-11T13:04:22;74.43;;;36.67;;
18172;SDS011;9211;48.818;9.312;2024-01-11T13:06:50;72.47;;;36.10;;
18172;SDS011;9211;48.818;9.312;2024-01-11T13:09:18;71.38;;;34.67;;
18172;SDS011;9211;48.818;9.312;2024-01-11T13:11:46;74.03;;;35.83;;
18172;SDS011;9211;48.818;9.312;2024-01-11T13:14:14;73.70;;;36.42;;
18172;SDS011;9211;48.818;9.312;2024-01-11T13:16:45;74.60;;;35.42;;
18172;SDS011;9211;48.818;9.312;2024-01-11T13:19:14;69.60;;;35.40;;
18172;SDS011;9211;48.818;9.312;2024-01-11T13:21:40;68.93;;;35.33;;
18172;SDS011;9211;48.818;9.312;2024-01-11T13:24:07;70.95;;;35.22;;
18172;SDS011;9211;48.818;9.312;2024-01-11T13:26:35;66.97;;;35.25;;
18172;SDS011;9211;48.818;9.312;2024-01-11T13:29:02;71.22;;;35.60;;
18172;SDS011;9211;48.818;9.312;2024-01-11T13:31:30;70.13;;;35.47;;
18172;SDS011;9211;48.818;9.312;2024-01-11T13:33:59;70.57;;;35.47;;
18172;SDS011;9211;48.818;9.312;2024-01-11T13:36:26;66.55;;;35.08;;
18172;SDS011;9211;48.818;9.312;2024-01-11T13:38:53;73.72;;;36.17;;
18172;SDS011;9211;48.818;9.312;2024-01-11T13:41:20;71.57;;;36.40;;
18172;SDS011;9211;48.818;9.312;2024-01-11T13:43:47;70.65;;;35.78;;
18172;SDS011;9211;48.818;9.312;2024-01-11T13:46:14;70.35;;;35.05;;
18172;SDS011;9211;48.818;9.312;2024-01-11T13:48:44;72.18;;;35.63;;
18172;SDS011;9211;48.818;9.312;2024-01-11T13:51:13;70.00;;;35.35;;
18172;SDS011;9211;48.818;9.312;2024-01-11T13:53:40;67.57;;;35.17;;
18172;SDS011;9211;48.818;9.312;2024-01-11T13:56:07;73.05;;;36.00;;
18172;SDS011;9211;48.818;9.312;2024-01-11T13:58:35;70.60;;;35.38;;
18172;SDS011;9211;48.818;9.312;2024-01-11T14:01:02;69.78;;;36.00;;
18172;SDS011;9211;48.818;9.312;2024-01-11T14:03:29;70.85;;;36.38;;
18172;SDS011;9211;48.818;9.312;2024-01-11T14:05:56;69.55;;;36.20;;
18172;SDS011;9211;48.818;9.312;2024-01-11T14:08:24;70.67;;;36.10;;
18172;SDS011;9211;48.818;9.312;2024-01-11T14:10:52;69.43;;;34.90;;
18172;SDS011;9211;48.818;9.312;2024-01-11T14:13:19;71.80;;;35.63;;
18172;SDS011;9211;48.818;9.312;2024-01-11T14:15:46;70.45;;;35.45;;
18172;SDS011;9211;48.818;9.312;2024-01-11T14:18:16;70.72;;;36.22;;
18172;SDS011;9211;48.818;9.312;2024-01-11T14:20:43;73.35;;;35.13;;
18172;SDS011;9211;48.818;9.312;2024-01-11T14:23:09;74.50;;;35.53;;
18172;SDS011;9211;48.818;9.312;2024-01-11T14:25:38;73.40;;;36.42;;
18172;SDS011;9211;48.818;9.312;2024-01-11T14:28:05;66.63;;;34.33;;
18172;SDS011;9211;48.818;9.312;2024-01-11T14:30:33;65.50;;;34.35;;
18172;SDS011;9211;48.818;9.312;2024-01-11T14:33:00;72.23;;;34.83;;
18172;SDS011;9211;48.818;9.312;2024-01-11T14:35:27;65.20;;;34.53;;